Time;durP1;ratioP1;P1;durP2;ratioP2;P2;SDS_P1;SDS_P2;PMS_P1;PMS_P2;Temp;Humidity;BMP_temperature;BMP_pressure;BME280_temperature;BME280_humidity;BME280_pressure;Samples;Min_cycle;Max_cycle;Signal;HPM_P1;HPM_P2
2023/08/27 00:01:17;;;;;;;10.32;5.70;;;;;;;15.44;100.00;93498.56;4974970;28;20063;-61
2023/08/27 00:03:44;;;;;;;8.77;5.85;;;;;;;15.38;100.00;93501.16;4981028;28;20035;-61
2023/08/27 00:06:12;;;;;;;11.90;5.85;;;;;;;15.26;100.00;93505.59;4975699;28;20045;-61
2023/08/27 00:08:39;;;;;;;8.82;5.80;;;;;;;15.13;100.00;93502.94;4972311;28;20852;-61
2023/08/27 00:11:05;;;;;;;17.63;9.23;;;;;;;15.15;100.00;93527.34;4964042;28;20054;-61
2023/08/27 00:13:32;;;;;;;11.30;5.85;;;;;;;15.30;100.00;93528.31;4961645;28;20413;-61
2023/08/27 00:15:59;;;;;;;9.90;5.32;;;;;;;15.43;100.00;93519.91;4973698;28;20050;-61
2023/08/27 00:18:29;;;;;;;9.45;5.63;;;;;;;15.51;100.00;93512.09;4979333;28;20057;-60
2023/08/27 00:20:56;;;;;;;9.68;4.95;;;;;;;15.58;100.00;93512.59;4975553;28;20042;-61
2023/08/27 00:23:24;;;;;;;8.07;5.50;;;;;;;15.67;100.00;93513.81;4972260;28;20439;-64
2023/08/27 00:25:53;;;;;;;8.10;5.40;;;;;;;15.72;100.00;93516.78;4975056;28;20060;-61
2023/08/27 00:28:20;;;;;;;8.07;5.18;;;;;;;15.72;100.00;93499.41;4975154;28;20047;-61
2023/08/27 00:30:47;;;;;;;10.73;5.70;;;;;;;15.70;100.00;93507.38;4977675;28;24107;-61
2023/08/27 00:33:14;;;;;;;8.93;5.10;;;;;;;15.76;100.00;93513.88;4976302;28;20054;-61
2023/08/27 00:35:42;;;;;;;9.97;5.43;;;;;;;15.78;100.00;93516.97;4976397;28;20054;-61
2023/08/27 00:38:09;;;;;;;9.30;5.25;;;;;;;15.82;100.00;93528.66;4973793;28;20100;-59
2023/08/27 00:40:36;;;;;;;9.45;5.78;;;;;;;15.81;100.00;93527.09;4975728;28;20101;-60
2023/08/27 00:43:02;;;;;;;9.00;5.38;;;;;;;15.83;100.00;93527.41;4975314;28;20038;-59
2023/08/27 00:45:29;;;;;;;7.75;5.18;;;;;;;15.90;100.00;93540.19;4977233;28;20050;-60
2023/08/27 00:47:56;;;;;;;8.53;5.13;;;;;;;15.92;100.00;93544.03;4977850;28;20038;-59
2023/08/27 00:50:25;;;;;;;8.70;5.47;;;;;;;15.87;100.00;93536.31;4975588;28;20057;-59
2023/08/27 00:52:53;;;;;;;8.77;5.50;;;;;;;15.60;100.00;93525.19;4978423;28;20053;-59
2023/08/27 00:55:21;;;;;;;13.63;7.75;;;;;;;15.48;100.00;93530.38;4977196;28;20680;-59
2023/08/27 00:57:49;;;;;;;21.45;11.88;;;;;;;15.56;100.00;93522.56;4975183;28;20748;-59
2023/08/27 01:00:18;;;;;;;11.43;6.20;;;;;;;15.35;100.00;93510.38;4971436;28;20051;-59
2023/08/27 01:02:46;;;;;;;10.65;6.93;;;;;;;15.02;100.00;93508.09;4978443;28;20409;-60
2023/08/27 01:05:13;;;;;;;12.27;7.18;;;;;;;14.78;100.00;93516.88;4976259;28;20043;-61
2023/08/27 01:08:03;;;;;;;11.38;6.57;;;;;;;14.81;100.00;93500.63;4975350;28;20072;-61
2023/08/27 01:10:51;;;;;;;10.40;6.82;;;;;;;14.60;100.00;93507.75;4974937;28;20123;-61
2023/08/27 01:13:52;;;;;;;9.43;6.30;;;;;;;14.83;100.00;93496.22;4978686;28;20121;-59
2023/08/27 01:16:22;;;;;;;10.50;5.90;;;;;;;14.88;100.00;93492.09;4947170;28;20049;-59
2023/08/27 01:18:51;;;;;;;12.40;6.03;;;;;;;14.97;100.00;93470.03;4955350;28;20487;-59
2023/08/27 01:21:19;;;;;;;12.05;6.40;;;;;;;14.73;100.00;93470.53;4960343;28;20073;-59
2023/08/27 01:23:45;;;;;;;10.80;6.35;;;;;;;14.76;100.00;93475.13;4959600;28;20050;-60
2023/08/27 01:26:20;;;;;;;11.80;6.00;;;;;;;14.92;100.00;93479.66;4976107;28;20054;-60
2023/08/27 01:28:51;;;;;;;11.48;5.90;;;;;;;14.82;100.00;93469.81;4977589;28;20426;-59
2023/08/27 01:31:24;;;;;;;9.35;6.53;;;;;;;15.05;100.00;93473.25;4976060;28;20060;-60
2023/08/27 01:33:55;;;;;;;12.02;7.15;;;;;;;15.26;100.00;93474.41;4971422;28;20050;-60
2023/08/27 01:36:22;;;;;;;10.50;5.75;;;;;;;15.33;100.00;93466.59;4970422;28;20050;-60
2023/08/27 01:38:49;;;;;;;9.17;6.10;;;;;;;15.16;100.00;93445.97;4971856;28;20062;-60
2023/08/27 01:41:16;;;;;;;8.45;5.90;;;;;;;15.05;100.00;93426.28;4975133;28;20461;-60
2023/08/27 01:43:42;;;;;;;10.68;6.90;;;;;;;14.78;100.00;93416.69;4977287;28;20045;-60
2023/08/27 01:46:09;;;;;;;11.25;7.10;;;;;;;14.54;100.00;93399.84;4971549;28;20114;-59
2023/08/27 01:48:36;;;;;;;10.43;6.30;;;;;;;14.66;100.00;93409.28;4971727;28;20053;-60
2023/08/27 01:51:03;;;;;;;10.83;6.53;;;;;;;14.93;100.00;93422.41;4974806;28;20045;-60
2023/08/27 01:53:30;;;;;;;10.85;6.20;;;;;;;14.97;100.00;93442.41;4978363;28;20052;-60
2023/08/27 01:55:58;;;;;;;10.30;5.95;;;;;;;15.02;100.00;93471.41;4978324;28;20055;-60
2023/08/27 01:58:25;;;;;;;8.95;6.30;;;;;;;15.07;100.00;93498.44;4973266;28;20059;-60
2023/08/27 02:00:51;;;;;;;8.30;5.40;;;;;;;15.10;100.00;93516.91;4974373;28;20934;-59
2023/08/27 02:03:18;;;;;;;9.77;6.13;;;;;;;15.17;100.00;93520.16;4971176;28;20092;-60
2023/08/27 02:05:47;;;;;;;8.82;5.60;;;;;;;15.21;100.00;93527.53;4973910;28;20542;-60
2023/08/27 02:08:14;;;;;;;8.40;5.38;;;;;;;15.29;100.00;93532.34;4975782;28;20047;-60
2023/08/27 02:10:41;;;;;;;7.82;4.40;;;;;;;15.41;100.00;93541.72;4975729;28;20039;-60
2023/08/27 02:13:07;;;;;;;8.57;4.75;;;;;;;15.42;100.00;93546.03;4962306;28;20047;-60
2023/08/27 02:15:34;;;;;;;7.63;5.10;;;;;;;15.43;100.00;93546.78;4966337;28;20057;-59
2023/08/27 02:18:01;;;;;;;8.73;4.78;;;;;;;15.53;100.00;93551.91;4977827;28;20039;-60
2023/08/27 02:20:28;;;;;;;16.60;6.03;;;;;;;15.38;100.00;93534.34;4959753;28;20680;-60
2023/08/27 02:22:55;;;;;;;8.85;5.13;;;;;;;15.31;100.00;93496.72;4971264;28;20088;-60
2023/08/27 02:25:22;;;;;;;8.07;4.80;;;;;;;15.23;100.00;93497.44;4980308;28;20046;-60
2023/08/27 02:27:48;;;;;;;8.87;5.53;;;;;;;14.97;100.00;93506.72;4979384;28;20044;-60
2023/08/27 02:30:15;;;;;;;9.20;5.15;;;;;;;15.05;100.00;93520.25;4980051;28;20426;-60
2023/08/27 02:32:43;;;;;;;7.97;4.93;;;;;;;15.11;100.00;93527.50;4973815;28;20046;-60
2023/08/27 02:35:10;;;;;;;8.90;5.20;;;;;;;15.09;100.00;93527.19;4973979;28;20116;-60
2023/08/27 02:37:36;;;;;;;8.98;4.90;;;;;;;15.09;100.00;93543.78;4978971;28;20548;-60
2023/08/27 02:40:04;;;;;;;8.03;4.80;;;;;;;15.11;100.00;93537.75;4981339;28;20152;-60
2023/08/27 02:42:30;;;;;;;8.75;4.63;;;;;;;15.17;100.00;93545.03;4968258;28;20413;-59
2023/08/27 02:44:57;;;;;;;7.75;4.88;;;;;;;15.23;100.00;93547.97;4978294;28;20058;-60
2023/08/27 02:47:24;;;;;;;7.45;4.75;;;;;;;15.22;100.00;93543.66;4983702;28;20096;-60
2023/08/27 02:49:51;;;;;;;7.63;5.00;;;;;;;15.26;100.00;93543.53;4981106;28;20046;-60
2023/08/27 02:52:18;;;;;;;8.23;4.70;;;;;;;15.27;100.00;93545.84;4976928;28;20072;-59
2023/08/27 02:54:44;;;;;;;8.40;4.13;;;;;;;15.27;100.00;93532.03;4981549;28;20052;-60
2023/08/27 02:57:11;;;;;;;7.03;3.90;;;;;;;15.33;100.00;93521.09;4984019;28;20482;-59
2023/08/27 02:59:38;;;;;;;8.90;4.97;;;;;;;15.29;100.00;93521.28;4981388;28;20064;-60
2023/08/27 03:02:05;;;;;;;9.13;5.38;;;;;;;15.33;100.00;93521.09;4983639;28;20542;-60
2023/08/27 03:04:31;;;;;;;15.93;10.23;;;;;;;15.31;100.00;93515.25;4977231;28;20050;-60
2023/08/27 03:06:58;;;;;;;11.07;5.20;;;;;;;15.14;100.00;93515.53;4981586;28;20132;-60
2023/08/27 03:09:25;;;;;;;8.55;5.28;;;;;;;15.20;100.00;93518.47;4965890;28;20471;-61
2023/08/27 03:11:51;;;;;;;8.18;4.60;;;;;;;15.28;100.00;93514.19;4961548;28;20629;-60
2023/08/27 03:14:18;;;;;;;6.90;4.00;;;;;;;15.28;100.00;93507.91;4963181;28;20071;-59
2023/08/27 03:16:45;;;;;;;8.43;4.37;;;;;;;15.15;100.00;93500.50;4963785;28;20057;-60
2023/08/27 03:19:11;;;;;;;7.28;4.43;;;;;;;15.02;100.00;93501.81;4961919;28;20051;-59
2023/08/27 03:21:38;;;;;;;8.18;4.10;;;;;;;14.88;100.00;93492.84;4961703;28;20054;-60
2023/08/27 03:24:05;;;;;;;7.05;3.17;;;;;;;14.82;100.00;93493.91;4965807;28;20043;-59
2023/08/27 03:26:32;;;;;;;4.13;2.50;;;;;;;14.74;100.00;93501.69;4963754;28;20053;-60
2023/08/27 03:28:59;;;;;;;4.67;2.33;;;;;;;14.74;100.00;93510.72;4963399;28;20050;-59
2023/08/27 03:31:25;;;;;;;5.60;2.38;;;;;;;14.81;100.00;93500.63;4961868;28;20053;-60
2023/08/27 03:33:52;;;;;;;3.95;2.30;;;;;;;14.83;100.00;93495.44;4963384;28;20542;-60
2023/08/27 03:36:19;;;;;;;4.70;2.05;;;;;;;14.86;100.00;93494.53;4963455;28;20496;-60
2023/08/27 03:38:46;;;;;;;3.95;2.10;;;;;;;14.75;100.00;93506.00;4961783;28;20046;-60
2023/08/27 03:41:12;;;;;;;4.83;2.10;;;;;;;14.94;100.00;93484.75;4964223;28;20051;-60
2023/08/27 03:43:39;;;;;;;4.18;2.20;;;;;;;14.87;100.00;93490.53;4964663;28;20074;-60
2023/08/27 03:46:06;;;;;;;3.63;2.03;;;;;;;14.90;100.00;93473.06;4966308;28;20459;-60
2023/08/27 03:48:32;;;;;;;3.60;1.80;;;;;;;14.85;100.00;93470.88;4965323;28;20039;-60
2023/08/27 03:50:59;;;;;;;3.88;2.10;;;;;;;14.77;100.00;93454.59;4965929;28;20434;-60
2023/08/27 03:53:26;;;;;;;3.67;1.90;;;;;;;14.74;100.00;93449.97;4965013;28;20051;-60
2023/08/27 03:55:53;;;;;;;3.60;1.90;;;;;;;14.71;100.00;93439.06;4964330;28;20051;-60
2023/08/27 03:58:20;;;;;;;4.60;2.30;;;;;;;14.80;100.00;93430.81;4963421;28;20412;-60
2023/08/27 04:00:48;;;;;;;4.13;2.20;;;;;;;14.79;100.00;93421.00;4962651;28;20055;-60
2023/08/27 04:03:15;;;;;;;4.25;2.40;;;;;;;14.63;100.00;93424.78;4962037;28;20055;-60
2023/08/27 04:05:41;;;;;;;4.70;2.10;;;;;;;14.75;100.00;93417.63;4962007;28;20399;-60
2023/08/27 04:08:08;;;;;;;4.38;2.13;;;;;;;14.64;100.00;93420.78;4960691;28;20043;-60
2023/08/27 04:10:35;;;;;;;4.78;2.35;;;;;;;14.70;100.00;93423.72;4959593;28;20043;-60
2023/08/27 04:13:02;;;;;;;3.83;2.03;;;;;;;14.56;100.00;93417.50;4964482;28;20432;-59
2023/08/27 04:15:29;;;;;;;5.25;2.17;;;;;;;14.45;100.00;93406.09;4971979;28;21615;-60
2023/08/27 04:17:56;;;;;;;3.43;2.17;;;;;;;14.35;100.00;93419.09;4984845;28;20042;-60
2023/08/27 04:20:22;;;;;;;4.50;2.20;;;;;;;14.36;100.00;93404.03;4981498;28;20146;-60
2023/08/27 04:22:49;;;;;;;3.92;2.22;;;;;;;14.34;100.00;93414.78;4980609;28;20549;-59
2023/08/27 04:25:16;;;;;;;4.22;2.22;;;;;;;14.37;100.00;93426.91;4982571;28;20050;-60
2023/08/27 04:27:43;;;;;;;4.85;2.28;;;;;;;14.42;100.00;93428.31;4979322;28;21419;-60
2023/08/27 04:30:12;;;;;;;3.47;2.10;;;;;;;14.39;100.00;93424.47;4979979;28;20420;-59
2023/08/27 04:32:39;;;;;;;3.78;2.22;;;;;;;14.44;100.00;93431.38;4977837;28;20724;-60
2023/08/27 04:35:06;;;;;;;3.75;2.28;;;;;;;14.50;100.00;93446.16;4979183;28;20410;-59
2023/08/27 04:37:32;;;;;;;4.43;2.20;;;;;;;14.55;100.00;93462.91;4979215;28;20380;-60
2023/08/27 04:39:59;;;;;;;5.10;2.50;;;;;;;14.52;100.00;93468.56;4980605;28;20042;-60
2023/08/27 04:42:26;;;;;;;4.67;2.30;;;;;;;14.46;100.00;93471.13;4979347;28;20398;-60
2023/08/27 04:44:52;;;;;;;5.13;2.30;;;;;;;14.34;100.00;93461.69;4978324;28;20042;-60
2023/08/27 04:47:19;;;;;;;4.13;2.22;;;;;;;14.39;100.00;93468.63;4981072;28;20077;-59
2023/08/27 04:49:46;;;;;;;3.92;2.35;;;;;;;14.35;100.00;93474.28;4978694;28;20058;-59
2023/08/27 04:52:14;;;;;;;4.10;2.35;;;;;;;14.34;100.00;93478.25;4979738;28;20051;-60
2023/08/27 04:54:57;;;;;;;6.57;2.80;;;;;;;14.36;100.00;93478.56;4983001;28;20372;-60
2023/08/27 04:57:23;;;;;;;5.50;2.53;;;;;;;14.28;100.00;93491.09;4983569;28;20434;-60
2023/08/27 04:59:50;;;;;;;4.65;2.60;;;;;;;14.30;100.00;93485.13;4979761;28;20577;-59
2023/08/27 05:02:17;;;;;;;5.28;2.30;;;;;;;14.35;100.00;93471.53;4979814;28;20422;-60
2023/08/27 05:04:44;;;;;;;4.68;3.00;;;;;;;14.31;100.00;93462.59;4980628;28;20394;-60
2023/08/27 05:07:11;;;;;;;4.47;2.60;;;;;;;14.42;100.00;93473.25;4958637;28;20500;-60
2023/08/27 05:09:37;;;;;;;4.60;2.80;;;;;;;14.35;100.00;93466.00;4963506;28;20047;-60
2023/08/27 05:12:04;;;;;;;4.95;2.58;;;;;;;14.25;100.00;93466.41;4959100;28;20573;-59
2023/08/27 05:14:31;;;;;;;5.38;2.78;;;;;;;14.24;100.00;93476.66;4961341;28;20038;-60
2023/08/27 05:16:58;;;;;;;4.60;2.40;;;;;;;14.22;100.00;93487.38;4959394;28;20058;-59
2023/08/27 05:19:25;;;;;;;4.77;2.50;;;;;;;14.27;100.00;93473.00;4960766;28;20044;-60
2023/08/27 05:21:51;;;;;;;3.95;2.40;;;;;;;14.33;100.00;93475.97;4959467;28;20061;-60
2023/08/27 05:24:18;;;;;;;4.38;2.53;;;;;;;14.28;100.00;93474.53;4961972;28;20047;-60
2023/08/27 05:26:45;;;;;;;4.47;2.65;;;;;;;14.28;100.00;93469.00;4963230;28;20053;-59
2023/08/27 05:29:12;;;;;;;5.53;3.65;;;;;;;14.26;100.00;93481.75;4962171;28;20047;-60
2023/08/27 05:31:39;;;;;;;4.70;2.80;;;;;;;14.30;100.00;93482.38;4959341;28;20384;-59
2023/08/27 05:34:05;;;;;;;4.30;2.70;;;;;;;14.40;100.00;93475.69;4961639;28;20451;-60
2023/08/27 05:36:32;;;;;;;4.55;2.90;;;;;;;14.42;100.00;93456.69;4959614;28;20070;-60
2023/08/27 05:38:59;;;;;;;4.90;2.80;;;;;;;14.30;100.00;93452.00;4964749;28;20416;-60
2023/08/27 05:41:25;;;;;;;4.45;2.78;;;;;;;14.35;100.00;93463.25;4962876;28;20039;-60
2023/08/27 05:43:52;;;;;;;4.83;2.70;;;;;;;14.44;100.00;93459.00;4960646;28;20054;-59
2023/08/27 05:46:19;;;;;;;4.75;2.80;;;;;;;14.46;100.00;93451.78;4957019;28;20121;-60
2023/08/27 05:48:46;;;;;;;4.72;2.80;;;;;;;14.43;100.00;93447.19;4962298;28;20047;-60
2023/08/27 05:51:12;;;;;;;6.57;2.85;;;;;;;14.55;100.00;93449.09;4960192;28;20047;-60
2023/08/27 05:53:39;;;;;;;5.63;3.00;;;;;;;14.66;100.00;93439.66;4964515;28;20039;-60
2023/08/27 05:56:06;;;;;;;4.93;2.60;;;;;;;14.65;100.00;93458.22;4959541;28;20057;-58
2023/08/27 05:58:33;;;;;;;4.93;2.97;;;;;;;14.60;100.00;93461.56;4961109;28;20414;-59
2023/08/27 06:01:02;;;;;;;4.45;2.80;;;;;;;14.64;100.00;93469.72;4957434;28;20043;-60
2023/08/27 06:03:29;;;;;;;4.85;3.10;;;;;;;14.61;100.00;93465.88;4978397;28;20084;-60
2023/08/27 06:05:56;;;;;;;6.47;3.10;;;;;;;14.50;100.00;93457.19;4980527;28;20050;-59
2023/08/27 06:08:22;;;;;;;5.37;3.23;;;;;;;14.67;100.00;93466.81;4978046;28;20060;-59
2023/08/27 06:10:49;;;;;;;5.55;3.08;;;;;;;14.46;100.00;93468.34;4966835;28;20054;-60
2023/08/27 06:13:16;;;;;;;5.57;3.58;;;;;;;14.32;100.00;93475.19;4979463;28;20446;-60
2023/08/27 06:15:43;;;;;;;7.50;3.40;;;;;;;14.50;100.00;93469.00;4974874;28;20047;-59
2023/08/27 06:18:09;;;;;;;6.05;3.47;;;;;;;14.60;100.00;93471.84;4981021;28;20042;-60
2023/08/27 06:20:36;;;;;;;7.00;3.37;;;;;;;14.44;100.00;93464.53;4978239;28;20407;-59
2023/08/27 06:23:07;;;;;;;5.43;3.20;;;;;;;14.58;100.00;93469.53;4978286;28;20042;-58
2023/08/27 06:25:36;;;;;;;6.28;3.70;;;;;;;14.54;100.00;93477.16;4980647;28;20056;-59
2023/08/27 06:28:04;;;;;;;7.70;3.42;;;;;;;14.48;100.00;93479.72;4978424;28;20054;-59
2023/08/27 06:30:31;;;;;;;5.93;3.13;;;;;;;14.43;100.00;93480.31;4979248;28;20505;-60
2023/08/27 06:32:58;;;;;;;4.97;3.17;;;;;;;14.45;100.00;93494.44;4979563;28;20053;-60
2023/08/27 06:35:25;;;;;;;5.50;3.40;;;;;;;14.39;100.00;93497.00;4975123;28;20042;-60
2023/08/27 06:37:52;;;;;;;7.28;3.28;;;;;;;14.42;100.00;93489.03;4979260;28;20046;-59
2023/08/27 06:40:19;;;;;;;6.15;3.00;;;;;;;14.51;100.00;93476.06;4976005;28;20065;-60
2023/08/27 06:42:45;;;;;;;6.15;3.20;;;;;;;14.56;100.00;93480.25;4977762;28;20047;-59
2023/08/27 06:45:12;;;;;;;6.23;3.67;;;;;;;14.56;100.00;93472.75;4974312;28;20050;-60
2023/08/27 06:47:39;;;;;;;6.57;3.95;;;;;;;14.65;100.00;93454.66;4977164;28;20057;-61
2023/08/27 06:50:06;;;;;;;7.38;3.58;;;;;;;14.42;100.00;93447.63;4979564;28;20046;-59
2023/08/27 06:52:33;;;;;;;7.00;3.80;;;;;;;14.37;100.00;93438.72;4979189;28;20045;-58
2023/08/27 06:55:00;;;;;;;5.15;3.80;;;;;;;14.31;100.00;93425.97;4978991;28;20508;-58
2023/08/27 06:57:28;;;;;;;5.97;3.67;;;;;;;14.41;100.00;93419.28;4979527;28;20042;-59
2023/08/27 06:59:55;;;;;;;5.00;3.28;;;;;;;14.53;100.00;93407.34;4976679;28;20042;-62
2023/08/27 07:02:21;;;;;;;6.38;3.47;;;;;;;14.77;100.00;93404.88;4967126;28;20042;-61
2023/08/27 07:04:48;;;;;;;7.05;3.20;;;;;;;14.85;100.00;93397.06;4974704;28;20114;-61
2023/08/27 07:07:15;;;;;;;5.65;2.90;;;;;;;14.98;100.00;93413.53;4965423;28;20051;-61
2023/08/27 07:09:42;;;;;;;6.83;3.10;;;;;;;15.14;100.00;93420.78;4934291;28;20050;-61
2023/08/27 07:12:09;;;;;;;5.53;3.05;;;;;;;15.28;100.00;93427.72;4960964;28;20492;-63
2023/08/27 07:14:36;;;;;;;6.43;3.35;;;;;;;15.29;100.00;93421.75;4964659;28;20446;-61
2023/08/27 07:17:03;;;;;;;6.85;3.00;;;;;;;15.26;100.00;93417.13;4964108;28;20104;-61
2023/08/27 07:19:29;;;;;;;5.32;2.90;;;;;;;15.31;100.00;93419.28;4975902;28;20159;-61
2023/08/27 07:21:58;;;;;;;6.23;2.83;;;;;;;15.34;100.00;93412.84;4982649;28;20458;-62
2023/08/27 07:24:26;;;;;;;4.97;2.92;;;;;;;15.57;100.00;93402.41;4982548;28;20438;-62
2023/08/27 07:26:53;;;;;;;6.13;3.00;;;;;;;15.45;100.00;93395.78;4979610;28;20445;-61
2023/08/27 07:29:19;;;;;;;6.95;2.90;;;;;;;15.59;100.00;93408.25;4976838;28;20053;-62
2023/08/27 07:31:46;;;;;;;4.38;2.75;;;;;;;15.57;100.00;93416.22;4963561;28;20061;-62
2023/08/27 07:34:13;;;;;;;6.43;2.73;;;;;;;15.63;100.00;93421.94;4964488;28;20043;-62
2023/08/27 07:36:39;;;;;;;5.10;2.70;;;;;;;15.56;100.00;93442.38;4961655;28;20444;-62
2023/08/27 07:39:06;;;;;;;5.68;2.60;;;;;;;15.49;100.00;93448.97;4973892;28;20046;-63
2023/08/27 07:41:33;;;;;;;5.28;3.10;;;;;;;15.25;100.00;93464.56;4977433;28;21440;-65
2023/08/27 07:44:00;;;;;;;5.55;2.45;;;;;;;15.05;100.00;93470.50;4982661;28;20113;-65
2023/08/27 07:46:27;;;;;;;7.30;2.83;;;;;;;15.10;100.00;93472.66;4982069;28;20462;-62
2023/08/27 07:48:54;;;;;;;5.57;2.78;;;;;;;14.95;100.00;93470.47;4982219;28;20046;-61
2023/08/27 07:51:20;;;;;;;4.65;2.97;;;;;;;15.11;100.00;93469.47;4980103;28;20077;-65
2023/08/27 07:53:47;;;;;;;5.20;2.78;;;;;;;15.23;100.00;93472.53;4981888;28;20050;-63
2023/08/27 07:56:14;;;;;;;4.40;2.88;;;;;;;15.20;100.00;93490.06;4978668;28;20403;-63
2023/08/27 07:58:40;;;;;;;6.63;3.20;;;;;;;15.26;100.00;93491.00;4981161;28;20050;-64
2023/08/27 08:01:07;;;;;;;9.73;3.60;;;;;;;15.13;100.00;93502.16;4981322;28;20038;-63
2023/08/27 08:03:34;;;;;;;9.10;3.00;;;;;;;15.07;100.00;93503.97;4977578;28;20054;-63
2023/08/27 08:06:01;;;;;;;6.95;2.92;;;;;;;15.03;100.00;93506.09;4978049;28;20043;-62
2023/08/27 08:08:28;;;;;;;5.22;2.75;;;;;;;15.09;100.00;93513.38;4976053;28;20790;-63
2023/08/27 08:10:55;;;;;;;5.27;2.80;;;;;;;15.12;100.00;93512.44;4978354;28;20116;-62
2023/08/27 08:13:23;;;;;;;4.85;2.90;;;;;;;15.16;100.00;93510.31;4975463;28;20133;-62
2023/08/27 08:15:50;;;;;;;6.50;2.85;;;;;;;15.16;100.00;93515.84;4981000;28;20050;-63
2023/08/27 08:18:17;;;;;;;5.32;2.65;;;;;;;15.05;100.00;93509.19;4977848;28;20050;-62
2023/08/27 08:20:45;;;;;;;5.72;2.70;;;;;;;15.26;100.00;93504.81;4982360;28;20054;-63
2023/08/27 08:23:11;;;;;;;8.77;3.17;;;;;;;15.30;100.00;93508.22;4978704;28;20061;-62
2023/08/27 08:25:42;;;;;;;7.90;3.08;;;;;;;15.38;100.00;93499.16;4979908;28;20042;-61
2023/08/27 08:28:09;;;;;;;6.50;2.90;;;;;;;15.45;100.00;93505.63;4977163;28;20356;-62
2023/08/27 08:30:35;;;;;;;6.05;2.92;;;;;;;15.52;100.00;93494.28;4979219;28;20054;-62
2023/08/27 08:33:03;;;;;;;7.03;3.28;;;;;;;15.69;100.00;93483.69;4977624;28;20038;-63
2023/08/27 08:35:29;;;;;;;5.17;2.63;;;;;;;15.80;100.00;93481.28;4980141;28;20046;-62
2023/08/27 08:37:57;;;;;;;4.38;2.55;;;;;;;15.60;100.00;93483.72;4977693;28;20561;-62
2023/08/27 08:40:25;;;;;;;5.35;2.65;;;;;;;15.60;100.00;93476.16;4976544;28;20505;-62
2023/08/27 08:42:57;;;;;;;4.25;2.40;;;;;;;15.49;100.00;93462.00;4979991;28;20045;-63
2023/08/27 08:45:34;;;;;;;6.85;2.70;;;;;;;15.72;100.00;93452.38;4977717;28;20484;-63
2023/08/27 08:48:03;;;;;;;4.17;2.50;;;;;;;15.66;100.00;93454.22;4979354;28;20058;-62
2023/08/27 08:50:35;;;;;;;5.25;2.80;;;;;;;15.64;100.00;93467.72;4968985;28;21753;-62
2023/08/27 08:53:14;;;;;;;4.43;2.55;;;;;;;15.92;100.00;93461.00;4976508;28;21008;-63
2023/08/27 08:55:46;;;;;;;4.03;2.40;;;;;;;16.14;100.00;93465.63;4963693;28;21391;-62
2023/08/27 08:58:13;;;;;;;4.60;2.65;;;;;;;16.45;100.00;93467.41;4962455;28;20044;-62
2023/08/27 09:00:40;;;;;;;4.77;2.80;;;;;;;16.33;100.00;93469.88;4959773;28;20149;-61
2023/08/27 09:03:07;;;;;;;5.43;2.72;;;;;;;16.29;100.00;93465.75;4957477;28;20051;-61
2023/08/27 09:05:36;;;;;;;5.80;2.60;;;;;;;16.64;100.00;93465.38;4960249;28;20051;-62
2023/08/27 09:08:04;;;;;;;4.65;2.35;;;;;;;16.63;100.00;93459.06;4959195;28;20047;-62
2023/08/27 09:10:31;;;;;;;4.03;2.47;;;;;;;16.45;100.00;93459.09;4960275;28;20504;-62
2023/08/27 09:13:02;;;;;;;4.80;2.57;;;;;;;16.11;100.00;93456.22;4957056;28;20043;-62
2023/08/27 09:15:29;;;;;;;4.68;2.40;;;;;;;16.40;100.00;93456.94;4973075;28;20904;-61
2023/08/27 09:17:56;;;;;;;3.90;2.50;;;;;;;16.69;100.00;93448.88;4965233;28;20488;-61
2023/08/27 09:20:24;;;;;;;4.30;2.40;;;;;;;16.80;100.00;93436.53;4958413;28;20055;-61
2023/08/27 09:22:52;;;;;;;4.93;2.70;;;;;;;16.92;100.00;93428.06;4973615;28;20041;-62
2023/08/27 09:25:19;;;;;;;4.47;2.37;;;;;;;17.36;100.00;93430.31;4957488;28;20522;-62
2023/08/27 09:27:46;;;;;;;5.13;2.40;;;;;;;17.03;100.00;93430.31;4959812;28;20531;-64
2023/08/27 09:30:14;;;;;;;5.20;2.22;;;;;;;17.51;100.00;93433.13;4955320;28;20053;-62
2023/08/27 09:32:45;;;;;;;5.00;2.20;;;;;;;17.30;100.00;93434.16;4956894;28;20055;-62
2023/08/27 09:35:11;;;;;;;4.22;2.20;;;;;;;17.33;100.00;93433.25;4961063;28;20034;-62
2023/08/27 09:37:43;;;;;;;4.77;2.20;;;;;;;17.41;100.00;93439.22;4959052;28;20058;-61
2023/08/27 09:40:13;;;;;;;4.43;2.20;;;;;;;17.48;100.00;93453.47;4956689;28;20047;-62
2023/08/27 09:42:40;;;;;;;4.10;2.05;;;;;;;17.47;100.00;93443.63;4956343;28;20055;-61
2023/08/27 09:45:07;;;;;;;4.53;2.35;;;;;;;16.89;100.00;93442.09;4958306;28;20512;-61
2023/08/27 09:47:38;;;;;;;5.22;2.20;;;;;;;16.77;100.00;93452.84;4959552;28;20060;-61
2023/08/27 09:50:15;;;;;;;4.13;2.20;;;;;;;16.51;100.00;93457.25;4958774;28;20131;-61
2023/08/27 09:52:45;;;;;;;3.95;2.38;;;;;;;16.17;100.00;93462.69;4958351;28;20055;-61
2023/08/27 09:55:13;;;;;;;4.70;2.50;;;;;;;16.45;100.00;93464.66;4957722;28;20057;-61
2023/08/27 09:57:50;;;;;;;4.80;2.28;;;;;;;16.18;100.00;93466.22;4956528;28;20046;-61
2023/08/27 10:00:18;;;;;;;5.88;2.58;;;;;;;16.27;100.00;93468.22;4960743;28;20432;-65
2023/08/27 10:02:49;;;;;;;4.33;2.03;;;;;;;16.12;100.00;93466.06;4974403;28;20128;-61
2023/08/27 10:05:16;;;;;;;3.70;2.05;;;;;;;16.09;100.00;93463.47;4962573;28;20061;-62
2023/08/27 10:07:56;;;;;;;3.20;1.83;;;;;;;16.01;100.00;93451.16;4958498;28;20054;-62
2023/08/27 10:10:23;;;;;;;4.45;2.40;;;;;;;15.95;100.00;93439.94;4957586;28;20055;-63
2023/08/27 10:12:51;;;;;;;3.97;2.20;;;;;;;15.90;100.00;93437.81;4957569;28;20069;-62
2023/08/27 10:15:19;;;;;;;4.30;2.20;;;;;;;15.95;100.00;93432.41;4958541;28;20065;-62
2023/08/27 10:17:47;;;;;;;3.78;2.08;;;;;;;16.36;100.00;93441.28;4959041;28;20054;-63
2023/08/27 10:20:15;;;;;;;3.88;2.20;;;;;;;16.29;100.00;93454.69;4970406;28;20043;-62
2023/08/27 10:22:42;;;;;;;4.75;2.15;;;;;;;16.52;100.00;93462.34;4958322;28;20055;-62
2023/08/27 10:25:09;;;;;;;4.53;2.30;;;;;;;16.10;100.00;93462.25;4958262;28;20058;-62
2023/08/27 10:27:36;;;;;;;5.13;2.13;;;;;;;16.01;100.00;93468.53;4959115;28;20077;-62
2023/08/27 10:30:07;;;;;;;3.95;2.20;;;;;;;15.85;100.00;93479.91;4957316;28;20735;-62
2023/08/27 10:32:34;;;;;;;5.13;2.38;;;;;;;15.91;100.00;93483.59;4959121;28;20042;-62
2023/08/27 10:35:05;;;;;;;5.65;2.13;;;;;;;16.12;100.00;93487.47;4964803;28;20057;-63
2023/08/27 10:37:35;;;;;;;3.67;2.17;;;;;;;16.28;100.00;93481.59;4979429;28;20050;-65
2023/08/27 10:40:08;;;;;;;4.47;2.40;;;;;;;16.49;100.00;93484.66;4992695;28;20047;-63
2023/08/27 10:42:39;;;;;;;4.93;3.22;;;;;;;16.52;100.00;93492.00;4992502;28;20511;-63
2023/08/27 10:45:19;;;;;;;6.00;2.75;;;;;;;16.51;100.00;93485.72;4992853;28;20105;-63
2023/08/27 10:48:04;;;;;;;5.00;2.60;;;;;;;16.42;100.00;93479.41;4992958;28;20045;-63
2023/08/27 10:50:49;;;;;;;4.75;2.33;;;;;;;16.27;100.00;93477.28;4992684;28;20403;-63
2023/08/27 10:53:17;;;;;;;4.97;2.43;;;;;;;16.49;100.00;93473.56;4992952;28;20058;-64
2023/08/27 10:55:50;;;;;;;5.00;2.30;;;;;;;16.52;100.00;93475.38;4993633;28;20471;-64
2023/08/27 10:58:20;;;;;;;5.03;2.58;;;;;;;16.83;100.00;93469.66;4992795;28;20046;-63
2023/08/27 11:01:00;;;;;;;4.68;2.50;;;;;;;16.68;100.00;93465.97;4979661;28;20042;-63
2023/08/27 11:03:27;;;;;;;4.78;2.75;;;;;;;16.19;100.00;93470.53;4981506;28;20045;-63
2023/08/27 11:06:13;;;;;;;5.13;2.33;;;;;;;15.88;100.00;93481.78;4992940;28;20047;-63
2023/08/27 11:08:41;;;;;;;5.55;2.40;;;;;;;15.72;100.00;93483.59;4991693;28;20419;-64
2023/08/27 11:11:11;;;;;;;3.88;2.13;;;;;;;15.59;100.00;93477.38;4992414;28;20046;-63
2023/08/27 11:13:41;;;;;;;4.07;2.08;;;;;;;15.47;100.00;93478.28;4993276;28;20049;-62
2023/08/27 11:16:11;;;;;;;4.07;2.22;;;;;;;15.39;100.00;93463.97;4992542;28;20124;-61
2023/08/27 11:18:47;;;;;;;4.00;2.10;;;;;;;15.60;100.00;93465.09;4979236;28;20051;-61
2023/08/27 11:21:40;;;;;;;4.20;2.00;;;;;;;15.91;100.00;93455.94;4992405;28;20398;-61
2023/08/27 11:24:14;;;;;;;3.55;2.00;;;;;;;16.21;100.00;93448.69;4979121;28;20054;-62
2023/08/27 11:26:42;;;;;;;3.25;1.75;;;;;;;16.62;100.00;93445.66;4992831;28;20050;-62
2023/08/27 11:29:10;;;;;;;3.25;1.60;;;;;;;16.44;100.00;93447.28;4985702;28;20054;-61